createdAt,value
2022-11-26T00:01:21.429Z,4.35
2022-11-26T00:03:49.105Z,5.30
2022-11-26T00:06:37.490Z,4.50
2022-11-26T00:09:11.760Z,4.80
2022-11-26T00:11:38.319Z,4.85
2022-11-26T00:14:16.214Z,4.40
2022-11-26T00:16:44.025Z,4.65
2022-11-26T00:19:10.881Z,5.30
2022-11-26T00:21:40.312Z,4.40
2022-11-26T00:24:22.627Z,5.50
2022-11-26T00:26:49.330Z,5.45
2022-11-26T00:29:15.926Z,5.28
2022-11-26T00:31:42.605Z,5.13
2022-11-26T00:34:09.165Z,4.82
2022-11-26T00:36:35.879Z,5.95
2022-11-26T00:39:06.524Z,5.68
2022-11-26T00:41:38.723Z,4.78
2022-11-26T00:44:18.649Z,5.45
2022-11-26T00:46:45.601Z,4.53
2022-11-26T00:49:12.298Z,4.82
2022-11-26T00:51:39.650Z,5.28
2022-11-26T00:54:08.898Z,5.00
2022-11-26T00:56:39.369Z,4.70
2022-11-26T00:59:06.363Z,4.85
2022-11-26T01:01:33.168Z,5.05
2022-11-26T01:03:59.855Z,4.78
2022-11-26T01:06:31.209Z,4.68
2022-11-26T01:08:57.965Z,4.68
2022-11-26T01:11:25.025Z,4.25
2022-11-26T01:13:53.618Z,4.93
2022-11-26T01:16:34.632Z,4.57
2022-11-26T01:19:02.324Z,4.85
2022-11-26T01:21:30.923Z,5.15
2022-11-26T01:23:57.928Z,5.18
2022-11-26T01:26:27.578Z,4.90
2022-11-26T01:28:55.451Z,4.90
2022-11-26T01:31:27.838Z,5.35
2022-11-26T01:36:31.845Z,5.47
2022-11-26T01:39:06.508Z,5.63
2022-11-26T01:41:51.757Z,5.60
2022-11-26T01:44:28.325Z,5.97
2022-11-26T01:46:55.794Z,6.07
2022-11-26T01:49:34.236Z,6.90
2022-11-26T01:52:18.101Z,6.18
2022-11-26T01:54:45.606Z,6.18
2022-11-26T01:57:20.725Z,6.97
2022-11-26T01:59:53.934Z,6.00
2022-11-26T02:02:23.222Z,6.70
2022-11-26T02:05:14.687Z,6.13
2022-11-26T02:07:41.754Z,5.97
2022-11-26T02:10:09.579Z,6.20
2022-11-26T02:12:37.674Z,6.88
2022-11-26T02:15:05.057Z,6.00
2022-11-26T02:17:50.376Z,6.40
2022-11-26T02:20:33.482Z,6.68
2022-11-26T02:23:27.967Z,6.43
2022-11-26T02:26:22.283Z,6.60
2022-11-26T02:29:23.605Z,6.97
2022-11-26T02:32:19.986Z,7.00
2022-11-26T02:35:03.984Z,6.07
2022-11-26T02:37:55.394Z,6.40
2022-11-26T02:40:22.913Z,6.22
2022-11-26T02:42:49.616Z,4.95
2022-11-26T02:45:19.849Z,6.53
2022-11-26T02:47:50.134Z,7.03
2022-11-26T02:50:22.146Z,7.10
2022-11-26T02:52:50.430Z,7.45
2022-11-26T02:55:22.364Z,7.28
2022-11-26T02:57:51.233Z,6.85
2022-11-26T03:00:18.377Z,6.75
2022-11-26T03:03:12.689Z,6.88
2022-11-26T03:05:41.914Z,6.20
2022-11-26T03:08:09.835Z,6.40
2022-11-26T03:10:36.433Z,6.22
2022-11-26T03:13:03.021Z,6.88
2022-11-26T03:15:29.762Z,6.68
2022-11-26T03:17:56.290Z,7.40
2022-11-26T03:20:22.969Z,6.32
2022-11-26T03:22:49.612Z,7.20
2022-11-26T03:25:16.460Z,6.93
2022-11-26T03:27:43.012Z,6.82
2022-11-26T03:30:09.941Z,7.07
2022-11-26T03:32:36.890Z,6.65
2022-11-26T03:35:04.665Z,6.70
2022-11-26T03:37:31.646Z,6.55
2022-11-26T03:39:58.269Z,6.38
2022-11-26T03:42:24.956Z,7.20
2022-11-26T03:44:51.719Z,7.45
2022-11-26T03:47:18.324Z,7.05
2022-11-26T03:49:46.281Z,7.03
2022-11-26T03:52:13.083Z,7.07
2022-11-26T03:54:39.825Z,6.88
2022-11-26T03:57:06.981Z,5.90
2022-11-26T03:59:33.664Z,6.72
2022-11-26T04:02:00.277Z,6.75
2022-11-26T04:04:26.841Z,6.50
2022-11-26T04:06:53.535Z,6.32
2022-11-26T04:09:20.205Z,6.10
2022-11-26T04:11:46.761Z,6.47
2022-11-26T04:14:13.409Z,6.40
2022-11-26T04:16:40.117Z,6.60
2022-11-26T04:19:06.817Z,6.70
2022-11-26T04:21:33.723Z,6.65
2022-11-26T04:24:00.338Z,6.90
2022-11-26T04:26:26.986Z,6.97
2022-11-26T04:28:53.629Z,7.07
2022-11-26T04:31:20.210Z,7.20
2022-11-26T04:33:46.849Z,7.38
2022-11-26T04:36:13.626Z,7.55
2022-11-26T04:38:40.247Z,7.18
2022-11-26T04:41:06.855Z,6.90
2022-11-26T04:43:33.924Z,7.68
2022-11-26T04:46:00.726Z,7.57
2022-11-26T04:48:27.428Z,7.03
2022-11-26T04:50:54.053Z,7.38
2022-11-26T04:53:22.009Z,6.90
2022-11-26T04:55:49.813Z,7.22
2022-11-26T04:58:20.366Z,6.85
2022-11-26T05:00:51.128Z,7.70
2022-11-26T05:03:18.933Z,7.47
2022-11-26T05:05:46.610Z,7.70
2022-11-26T05:08:13.222Z,7.70
2022-11-26T05:10:39.882Z,8.80
2022-11-26T05:13:06.550Z,7.78
2022-11-26T05:15:33.157Z,7.20
2022-11-26T05:17:59.701Z,7.47
2022-11-26T05:20:26.327Z,8.23
2022-11-26T05:22:53.007Z,8.15
2022-11-26T05:25:19.769Z,7.70
2022-11-26T05:27:46.412Z,7.53
2022-11-26T05:30:13.402Z,7.50
2022-11-26T05:32:40.065Z,7.68
2022-11-26T05:35:08.057Z,7.43
2022-11-26T05:37:34.745Z,7.75
2022-11-26T05:40:01.477Z,8.02
2022-11-26T05:42:28.085Z,7.43
2022-11-26T05:44:54.666Z,8.40
2022-11-26T05:47:21.310Z,7.85
2022-11-26T05:49:47.851Z,8.68
2022-11-26T05:52:14.412Z,9.23
2022-11-26T05:54:41.294Z,7.88
2022-11-26T05:57:08.282Z,8.38
2022-11-26T05:59:34.927Z,8.55
2022-11-26T06:02:01.588Z,8.38
2022-11-26T06:04:29.088Z,8.88
2022-11-26T06:06:56.158Z,8.10
2022-11-26T06:09:22.975Z,8.10
2022-11-26T06:11:50.515Z,8.10
2022-11-26T06:14:18.135Z,8.45
2022-11-26T06:16:44.805Z,10.57
2022-11-26T06:19:11.922Z,8.55
2022-11-26T06:21:38.788Z,8.98
2022-11-26T06:24:05.761Z,8.00
2022-11-26T06:26:32.431Z,8.32
2022-11-26T06:28:59.042Z,8.48
2022-11-26T06:31:25.824Z,8.52
2022-11-26T06:33:56.210Z,8.50
2022-11-26T06:36:23.547Z,8.27
2022-11-26T06:38:50.470Z,8.38
2022-11-26T06:41:17.321Z,8.07
2022-11-26T06:43:44.043Z,7.55
2022-11-26T06:46:11.994Z,8.48
2022-11-26T06:48:39.295Z,8.85
2022-11-26T06:51:17.005Z,8.63
2022-11-26T06:53:43.646Z,8.48
2022-11-26T06:56:18.042Z,9.07
2022-11-26T06:58:46.643Z,9.07
2022-11-26T07:01:16.980Z,8.85
2022-11-26T07:03:43.681Z,7.93
2022-11-26T07:06:22.170Z,8.93
2022-11-26T07:08:49.399Z,9.07
2022-11-26T07:11:16.890Z,8.70
2022-11-26T07:13:44.005Z,7.75
2022-11-26T07:16:11.604Z,9.48
2022-11-26T07:18:38.640Z,8.77
2022-11-26T07:21:12.778Z,9.02
2022-11-26T07:23:40.496Z,8.65
2022-11-26T07:26:08.575Z,9.68
2022-11-26T07:28:35.810Z,8.40
2022-11-26T07:31:04.526Z,8.85
2022-11-26T07:33:31.208Z,8.23
2022-11-26T07:36:02.206Z,8.40
2022-11-26T07:38:29.794Z,7.38
2022-11-26T07:41:07.172Z,7.90
2022-11-26T07:43:40.888Z,8.68
2022-11-26T07:46:09.966Z,7.40
2022-11-26T07:48:39.065Z,7.47
2022-11-26T07:51:16.702Z,6.63
2022-11-26T07:53:43.774Z,8.30
2022-11-26T07:56:10.497Z,8.98
2022-11-26T07:58:37.130Z,8.85
2022-11-26T08:01:11.483Z,7.95
2022-11-26T08:03:39.878Z,8.25
2022-11-26T08:06:08.501Z,7.80
2022-11-26T08:08:35.922Z,7.50
2022-11-26T08:11:04.010Z,7.00
2022-11-26T08:13:30.564Z,6.65
2022-11-26T08:15:57.226Z,7.82
2022-11-26T08:18:23.866Z,7.10
2022-11-26T08:20:57.278Z,8.15
2022-11-26T08:23:25.297Z,7.47
2022-11-26T08:26:21.472Z,7.97
2022-11-26T08:28:38.997Z,7.47
2022-11-26T08:31:07.716Z,7.03
2022-11-26T08:33:34.946Z,7.32
2022-11-26T08:36:08.869Z,7.60
2022-11-26T08:38:36.063Z,7.05
2022-11-26T08:41:05.381Z,7.93
2022-11-26T08:44:04.103Z,8.45
2022-11-26T08:46:21.756Z,7.55
2022-11-26T08:48:48.453Z,8.30
2022-11-26T08:51:17.224Z,7.72
2022-11-26T08:53:44.955Z,8.30
2022-11-26T08:56:12.934Z,7.45
2022-11-26T08:58:41.862Z,7.53
2022-11-26T09:01:17.221Z,7.00
2022-11-26T09:03:44.420Z,7.85
2022-11-26T09:06:11.457Z,7.50
2022-11-26T09:08:56.685Z,7.22
2022-11-26T09:11:24.450Z,6.80
2022-11-26T09:13:50.988Z,7.03
2022-11-26T09:16:17.773Z,6.68
2022-11-26T09:18:44.412Z,6.45
2022-11-26T09:21:10.992Z,6.50
2022-11-26T09:23:37.918Z,5.75
2022-11-26T09:26:05.867Z,6.72
2022-11-26T09:28:32.533Z,6.35
2022-11-26T09:31:00.029Z,6.65
2022-11-26T09:33:27.437Z,5.97
2022-11-26T09:35:54.188Z,6.85
2022-11-26T09:38:21.661Z,6.72
2022-11-26T09:41:06.027Z,6.15
2022-11-26T09:44:04.667Z,6.35
2022-11-26T09:47:10.542Z,6.22
2022-11-26T09:49:43.694Z,5.93
2022-11-26T09:52:13.516Z,5.88
2022-11-26T09:54:40.776Z,6.80
2022-11-26T09:57:21.516Z,4.25
2022-11-26T09:59:50.194Z,6.80
2022-11-26T10:02:16.862Z,5.65
2022-11-26T10:04:45.734Z,7.30
2022-11-26T10:07:38.551Z,6.45
2022-11-26T10:10:25.474Z,6.38
2022-11-26T10:13:18.421Z,6.32
2022-11-26T10:15:57.668Z,8.05
2022-11-26T10:18:37.263Z,5.80
2022-11-26T10:21:12.686Z,6.93
2022-11-26T10:23:57.776Z,5.93
2022-11-26T10:26:34.734Z,6.00
2022-11-26T10:29:24.444Z,6.93
2022-11-26T10:31:56.485Z,7.00
2022-11-26T10:34:39.908Z,6.40
2022-11-26T10:37:07.328Z,6.05
2022-11-26T10:39:34.117Z,6.63
2022-11-26T10:42:17.776Z,6.55
2022-11-26T10:44:45.673Z,6.05
2022-11-26T10:47:30.882Z,5.57
2022-11-26T10:50:19.256Z,5.90
2022-11-26T10:52:53.937Z,5.50
2022-11-26T10:55:26.157Z,6.03
2022-11-26T10:58:03.931Z,6.63
2022-11-26T11:00:39.073Z,5.60
2022-11-26T11:03:44.967Z,6.47
2022-11-26T11:06:21.086Z,6.03
2022-11-26T11:08:52.333Z,5.85
2022-11-26T11:11:20.780Z,5.50
2022-11-26T11:13:48.442Z,6.20
2022-11-26T11:16:40.852Z,6.85
2022-11-26T11:19:22.612Z,6.15
2022-11-26T11:21:49.313Z,6.60
2022-11-26T11:24:18.677Z,6.05
2022-11-26T11:26:53.454Z,7.53
2022-11-26T11:29:26.453Z,6.43
2022-11-26T11:31:53.371Z,5.57
2022-11-26T11:34:23.847Z,6.82
2022-11-26T11:37:15.354Z,5.15
2022-11-26T11:39:42.968Z,5.93
2022-11-26T11:42:31.035Z,5.88
2022-11-26T11:44:59.029Z,8.38
2022-11-26T11:47:28.734Z,7.13
2022-11-26T11:50:02.467Z,6.05
2022-11-26T11:52:40.471Z,6.28
2022-11-26T11:55:42.739Z,8.85
2022-11-26T11:58:43.476Z,5.97
2022-11-26T12:01:31.691Z,5.20
2022-11-26T12:04:33.497Z,5.53
2022-11-26T12:07:24.742Z,6.63
2022-11-26T12:10:37.379Z,5.40
2022-11-26T12:13:09.583Z,5.05
2022-11-26T12:15:52.694Z,6.00
2022-11-26T12:18:31.442Z,5.45
2022-11-26T12:21:09.669Z,4.82
2022-11-26T12:23:55.242Z,6.20
2022-11-26T12:26:36.189Z,3.88
2022-11-26T12:29:25.743Z,5.68
2022-11-26T12:32:01.017Z,5.20
2022-11-26T12:34:33.074Z,6.30
2022-11-26T12:37:27.156Z,4.63
2022-11-26T12:39:54.242Z,3.88
2022-11-26T12:42:52.444Z,5.00
2022-11-26T12:45:23.564Z,4.47
2022-11-26T12:48:00.024Z,6.03
2022-11-26T12:50:44.183Z,5.05
2022-11-26T12:53:32.972Z,5.57
2022-11-26T12:56:23.505Z,4.68
2022-11-26T12:59:13.396Z,4.80
2022-11-26T13:01:40.095Z,4.75
2022-11-26T13:04:36.110Z,3.97
2022-11-26T13:06:55.353Z,4.32
2022-11-26T13:09:49.622Z,4.60
2022-11-26T13:12:32.425Z,5.07
2022-11-26T13:15:11.605Z,3.92
2022-11-26T13:17:43.982Z,4.43
2022-11-26T13:22:52.110Z,3.60
2022-11-26T13:26:06.398Z,3.85
2022-11-26T13:28:51.342Z,4.60
2022-11-26T13:31:18.033Z,4.68
2022-11-26T13:33:53.781Z,4.07
2022-11-26T13:36:41.147Z,4.18
2022-11-26T13:39:37.827Z,4.90
2022-11-26T13:42:25.994Z,4.22
2022-11-26T13:44:55.446Z,3.78
2022-11-26T13:47:37.221Z,3.42
2022-11-26T13:50:17.126Z,4.68
2022-11-26T13:52:56.629Z,4.85
2022-11-26T13:55:28.420Z,4.70
2022-11-26T13:58:00.004Z,4.05
2022-11-26T14:00:29.589Z,4.20
2022-11-26T14:02:57.105Z,4.32
2022-11-26T14:05:23.921Z,4.40
2022-11-26T14:07:50.664Z,4.28
2022-11-26T14:10:35.836Z,4.05
2022-11-26T14:13:02.553Z,4.40
2022-11-26T14:15:41.465Z,4.00
2022-11-26T14:18:15.254Z,4.30
2022-11-26T14:21:00.637Z,4.20
2022-11-26T14:23:42.557Z,4.38
2022-11-26T14:26:30.652Z,3.95
2022-11-26T14:29:06.724Z,4.20
2022-11-26T14:31:35.682Z,4.20
2022-11-26T14:34:17.121Z,4.47
2022-11-26T14:36:59.187Z,4.15
2022-11-26T14:39:27.668Z,4.57
2022-11-26T14:42:04.053Z,4.20
2022-11-26T14:44:32.871Z,3.85
2022-11-26T14:47:07.767Z,4.05
2022-11-26T14:49:41.502Z,5.20
2022-11-26T14:52:24.373Z,4.38
2022-11-26T14:54:53.678Z,4.55
2022-11-26T14:57:26.096Z,4.65
2022-11-26T15:00:01.069Z,4.47
2022-11-26T15:02:29.670Z,3.97
2022-11-26T15:05:12.789Z,4.38
2022-11-26T15:07:39.561Z,4.55
2022-11-26T15:10:13.446Z,4.13
2022-11-26T15:12:41.403Z,4.32
2022-11-26T15:15:20.652Z,4.28
2022-11-26T15:17:53.266Z,4.25
2022-11-26T15:20:21.957Z,4.78
2022-11-26T15:22:51.567Z,4.70
2022-11-26T15:25:27.718Z,5.22
2022-11-26T15:28:06.341Z,5.00
2022-11-26T15:30:35.639Z,4.43
2022-11-26T15:33:13.924Z,4.47
2022-11-26T15:35:41.178Z,4.35
2022-11-26T15:38:14.814Z,4.90
2022-11-26T15:40:50.314Z,5.22
2022-11-26T15:43:23.904Z,4.40
2022-11-26T15:45:53.273Z,4.15
2022-11-26T15:48:28.201Z,4.95
2022-11-26T15:51:06.409Z,4.82
2022-11-26T15:53:36.449Z,5.30
2022-11-26T15:56:04.400Z,4.97
2022-11-26T15:58:35.026Z,5.88
2022-11-26T16:01:04.617Z,5.13
2022-11-26T16:03:51.916Z,5.28
2022-11-26T16:06:39.744Z,5.07
2022-11-26T16:09:10.096Z,5.78
2022-11-26T16:11:40.945Z,6.10
2022-11-26T16:14:36.669Z,5.57
2022-11-26T16:17:12.248Z,5.40
2022-11-26T16:19:56.009Z,5.15
2022-11-26T16:22:28.686Z,5.72
2022-11-26T16:25:23.225Z,5.88
2022-11-26T16:28:11.679Z,6.53
2022-11-26T16:30:40.125Z,5.63
2022-11-26T16:33:07.583Z,5.57
2022-11-26T16:35:50.445Z,5.70
2022-11-26T16:38:25.267Z,6.00
2022-11-26T16:40:52.792Z,5.20
2022-11-26T16:43:20.218Z,5.43
2022-11-26T16:45:48.260Z,5.20
2022-11-26T16:48:20.830Z,5.78
2022-11-26T16:50:47.441Z,5.57
2022-11-26T16:53:13.994Z,6.05
2022-11-26T16:55:40.661Z,5.35
2022-11-26T16:58:09.737Z,5.70
2022-11-26T17:00:36.470Z,5.80
2022-11-26T17:03:03.249Z,5.90
2022-11-26T17:05:30.007Z,7.18
2022-11-26T17:07:59.378Z,5.68
2022-11-26T17:10:30.945Z,6.40
2022-11-26T17:12:57.913Z,5.70
2022-11-26T17:15:24.855Z,6.22
2022-11-26T17:18:02.733Z,5.65
2022-11-26T17:20:29.375Z,6.00
2022-11-26T17:22:55.993Z,6.15
2022-11-26T17:25:22.717Z,6.10
2022-11-26T17:27:49.465Z,6.00
2022-11-26T17:30:19.660Z,6.15
2022-11-26T17:32:46.325Z,5.72
2022-11-26T17:35:12.976Z,5.90
2022-11-26T17:37:39.721Z,5.90
2022-11-26T17:40:18.721Z,6.57
2022-11-26T17:42:45.589Z,6.55
2022-11-26T17:45:12.360Z,4.90
2022-11-26T17:47:39.521Z,5.25
2022-11-26T17:50:16.854Z,4.60
2022-11-26T17:52:43.529Z,5.40
2022-11-26T17:55:11.498Z,5.22
2022-11-26T17:57:38.090Z,5.10
2022-11-26T18:00:06.699Z,5.68
2022-11-26T18:02:33.548Z,5.78
2022-11-26T18:05:00.370Z,5.07
2022-11-26T18:07:26.985Z,6.78
2022-11-26T18:09:54.038Z,4.63
2022-11-26T18:12:25.503Z,4.65
2022-11-26T18:14:56.897Z,4.70
2022-11-26T18:17:24.807Z,4.88
2022-11-26T18:19:51.561Z,5.38
2022-11-26T18:22:21.770Z,4.85
2022-11-26T18:24:56.483Z,4.80
2022-11-26T18:27:28.533Z,5.10
2022-11-26T18:29:55.492Z,4.90
2022-11-26T18:32:22.374Z,5.63
2022-11-26T18:34:50.533Z,4.93
2022-11-26T18:37:17.985Z,5.05
2022-11-26T18:39:44.592Z,5.15
2022-11-26T18:44:58.905Z,5.28
2022-11-26T18:47:25.586Z,5.45
2022-11-26T18:49:52.194Z,4.53
2022-11-26T18:52:18.801Z,5.60
2022-11-26T18:54:45.420Z,4.63
2022-11-26T18:57:11.985Z,5.00
2022-11-26T18:59:38.850Z,5.20
2022-11-26T19:02:05.768Z,4.80
2022-11-26T19:04:33.012Z,4.63
2022-11-26T19:06:59.760Z,4.82
2022-11-26T19:09:26.428Z,4.93
2022-11-26T19:11:58.110Z,4.90
2022-11-26T19:14:25.038Z,4.22
2022-11-26T19:16:52.451Z,4.88
2022-11-26T19:19:19.416Z,5.10
2022-11-26T19:21:46.055Z,4.85
2022-11-26T19:24:12.809Z,4.82
2022-11-26T19:26:41.141Z,4.95
2022-11-26T19:29:09.249Z,6.15
2022-11-26T19:31:38.883Z,5.22
2022-11-26T19:34:09.858Z,5.20
2022-11-26T19:36:37.475Z,4.82
2022-11-26T19:39:06.636Z,5.25
2022-11-26T19:41:33.977Z,5.03
2022-11-26T19:44:01.303Z,5.22
2022-11-26T19:46:28.072Z,5.47
2022-11-26T19:48:55.733Z,5.55
2022-11-26T19:51:24.408Z,5.13
2022-11-26T19:53:52.638Z,4.10
2022-11-26T19:56:25.597Z,4.63
2022-11-26T19:58:58.232Z,4.20
2022-11-26T20:01:28.651Z,5.00
2022-11-26T20:03:55.468Z,4.88
2022-11-26T20:06:26.596Z,4.25
2022-11-26T20:08:54.029Z,4.35
2022-11-26T20:11:20.932Z,4.13
2022-11-26T20:13:48.881Z,3.35
2022-11-26T20:16:19.131Z,4.80
2022-11-26T20:18:46.379Z,4.63
2022-11-26T20:21:15.388Z,4.40
2022-11-26T20:23:42.202Z,4.32
2022-11-26T20:26:19.046Z,4.72
2022-11-26T20:28:45.970Z,4.38
2022-11-26T20:31:13.658Z,4.80
2022-11-26T20:33:40.706Z,4.30
2022-11-26T20:36:12.941Z,5.72
2022-11-26T20:38:43.006Z,3.75
2022-11-26T20:41:11.935Z,4.65
2022-11-26T20:43:38.708Z,4.80
2022-11-26T20:46:06.940Z,3.90
2022-11-26T20:48:35.405Z,3.40
2022-11-26T20:51:04.160Z,4.15
2022-11-26T20:53:31.303Z,4.22
2022-11-26T20:55:58.298Z,4.20
2022-11-26T20:58:26.289Z,4.35
2022-11-26T21:00:54.362Z,4.80
2022-11-26T21:03:25.209Z,4.40
2022-11-26T21:05:52.465Z,4.35
2022-11-26T21:08:20.024Z,4.30
2022-11-26T21:10:48.808Z,4.53
2022-11-26T21:13:18.145Z,4.18
2022-11-26T21:15:48.959Z,3.70
2022-11-26T21:18:15.699Z,4.25
2022-11-26T21:20:43.329Z,4.07
2022-11-26T21:23:12.189Z,4.22
2022-11-26T21:25:41.565Z,4.35
2022-11-26T21:28:09.189Z,4.35
2022-11-26T21:30:36.248Z,4.75
2022-11-26T21:33:08.677Z,4.28
2022-11-26T21:35:36.631Z,4.03
2022-11-26T21:38:04.102Z,4.30
2022-11-26T21:40:30.744Z,4.55
2022-11-26T21:42:57.435Z,4.20
2022-11-26T21:45:24.330Z,4.65
2022-11-26T21:47:51.846Z,4.85
2022-11-26T21:50:19.371Z,4.82
2022-11-26T21:52:47.219Z,4.55
2022-11-26T21:55:14.001Z,4.45
2022-11-26T21:57:40.709Z,4.60
2022-11-26T22:00:08.477Z,4.20
2022-11-26T22:02:35.200Z,4.13
2022-11-26T22:05:01.961Z,4.07
2022-11-26T22:07:30.105Z,4.80
2022-11-26T22:09:56.933Z,4.15
2022-11-26T22:12:23.559Z,4.47
2022-11-26T22:14:50.097Z,4.40
2022-11-26T22:17:16.647Z,5.00
2022-11-26T22:19:43.196Z,4.80
2022-11-26T22:22:09.793Z,4.30
2022-11-26T22:24:36.416Z,4.28
2022-11-26T22:27:03.070Z,4.22
2022-11-26T22:29:29.666Z,4.10
2022-11-26T22:31:56.277Z,4.45
2022-11-26T22:34:24.446Z,4.07
2022-11-26T22:36:51.389Z,4.20
2022-11-26T22:39:18.442Z,3.97
2022-11-26T22:41:46.489Z,4.70
2022-11-26T22:44:13.916Z,4.30
2022-11-26T22:46:40.511Z,4.88
2022-11-26T22:49:17.709Z,5.15
2022-11-26T22:51:44.715Z,4.75
2022-11-26T22:54:13.976Z,5.07
2022-11-26T22:56:40.988Z,4.15
2022-11-26T22:59:09.102Z,4.03
2022-11-26T23:01:37.015Z,4.55
2022-11-26T23:04:06.512Z,4.90
2022-11-26T23:06:34.885Z,4.68
2022-11-26T23:09:03.426Z,4.18
2022-11-26T23:11:33.275Z,4.28
2022-11-26T23:14:02.024Z,4.50
2022-11-26T23:16:29.204Z,4.55
2022-11-26T23:18:57.246Z,4.93
2022-11-26T23:21:34.125Z,4.47
2022-11-26T23:24:00.741Z,4.40
2022-11-26T23:26:30.180Z,4.25
2022-11-26T23:28:57.908Z,4.70
2022-11-26T23:31:28.056Z,4.63
2022-11-26T23:33:54.904Z,4.22
2022-11-26T23:36:22.237Z,4.82
2022-11-26T23:38:49.218Z,4.35
2022-11-26T23:41:15.886Z,4.15
2022-11-26T23:43:42.989Z,4.05
2022-11-26T23:46:21.242Z,4.18
2022-11-26T23:48:48.976Z,4.20
2022-11-26T23:51:19.729Z,4.30
2022-11-26T23:53:47.206Z,4.50
2022-11-26T23:56:23.777Z,4.15
2022-11-26T23:58:52.154Z,3.90
